sensor_id;sensor_type;location;lat;lon;timestamp;P1;durP1;ratioP1;P2;durP2;ratioP2
58137;SDS011;43955;47.362;18.930;2024-03-02T00:00:21;29.87;;;15.70;;
58137;SDS011;43955;47.362;18.930;2024-03-02T00:02:50;28.92;;;14.77;;
58137;SDS011;43955;47.362;18.930;2024-03-02T00:05:19;28.83;;;14.90;;
58137;SDS011;43955;47.362;18.930;2024-03-02T00:07:57;29.40;;;15.07;;
58137;SDS011;43955;47.362;18.930;2024-03-02T00:10:26;26.45;;;15.02;;
58137;SDS011;43955;47.362;18.930;2024-03-02T00:12:59;27.00;;;15.23;;
58137;SDS011;43955;47.362;18.930;2024-03-02T00:18:11;30.23;;;14.57;;
58137;SDS011;43955;47.362;18.930;2024-03-02T00:20:42;24.30;;;14.20;;
58137;SDS011;43955;47.362;18.930;2024-03-02T00:23:10;30.83;;;15.00;;
58137;SDS011;43955;47.362;18.930;2024-03-02T00:25:42;28.67;;;14.75;;
58137;SDS011;43955;47.362;18.930;2024-03-02T00:33:19;28.00;;;14.82;;
58137;SDS011;43955;47.362;18.930;2024-03-02T00:35:47;29.83;;;15.27;;
58137;SDS011;43955;47.362;18.930;2024-03-02T00:38:16;23.58;;;13.77;;
58137;SDS011;43955;47.362;18.930;2024-03-02T00:40:44;26.35;;;14.80;;
58137;SDS011;43955;47.362;18.930;2024-03-02T00:43:58;25.37;;;14.90;;
58137;SDS011;43955;47.362;18.930;2024-03-02T00:46:10;26.52;;;16.20;;
58137;SDS011;43955;47.362;18.930;2024-03-02T00:48:40;28.35;;;16.37;;
58137;SDS011;43955;47.362;18.930;2024-03-02T00:51:32;27.55;;;15.65;;
58137;SDS011;43955;47.362;18.930;2024-03-02T00:54:07;34.55;;;16.30;;
58137;SDS011;43955;47.362;18.930;2024-03-02T00:56:35;28.62;;;15.43;;
58137;SDS011;43955;47.362;18.930;2024-03-02T00:59:02;29.05;;;15.27;;
58137;SDS011;43955;47.362;18.930;2024-03-02T01:01:30;25.42;;;14.45;;
58137;SDS011;43955;47.362;18.930;2024-03-02T01:03:57;27.65;;;13.95;;
58137;SDS011;43955;47.362;18.930;2024-03-02T01:06:25;27.77;;;14.75;;
58137;SDS011;43955;47.362;18.930;2024-03-02T01:08:52;28.70;;;15.27;;
58137;SDS011;43955;47.362;18.930;2024-03-02T01:11:20;25.10;;;15.73;;
58137;SDS011;43955;47.362;18.930;2024-03-02T01:13:51;27.65;;;14.23;;
58137;SDS011;43955;47.362;18.930;2024-03-02T01:16:19;28.95;;;15.00;;
58137;SDS011;43955;47.362;18.930;2024-03-02T01:18:46;26.85;;;15.02;;
58137;SDS011;43955;47.362;18.930;2024-03-02T01:21:14;30.33;;;14.77;;
58137;SDS011;43955;47.362;18.930;2024-03-02T01:23:42;27.90;;;13.98;;
58137;SDS011;43955;47.362;18.930;2024-03-02T01:26:09;27.33;;;15.57;;
58137;SDS011;43955;47.362;18.930;2024-03-02T01:28:36;27.33;;;14.63;;
58137;SDS011;43955;47.362;18.930;2024-03-02T01:31:04;29.02;;;15.68;;
58137;SDS011;43955;47.362;18.930;2024-03-02T01:33:31;27.27;;;15.00;;
58137;SDS011;43955;47.362;18.930;2024-03-02T01:35:59;26.73;;;15.32;;
58137;SDS011;43955;47.362;18.930;2024-03-02T01:38:26;23.73;;;14.20;;
58137;SDS011;43955;47.362;18.930;2024-03-02T01:40:53;31.15;;;14.38;;
58137;SDS011;43955;47.362;18.930;2024-03-02T01:43:24;25.30;;;13.77;;
58137;SDS011;43955;47.362;18.930;2024-03-02T01:45:51;25.45;;;14.18;;
58137;SDS011;43955;47.362;18.930;2024-03-02T01:48:19;26.90;;;15.60;;
58137;SDS011;43955;47.362;18.930;2024-03-02T01:50:46;25.77;;;15.40;;
58137;SDS011;43955;47.362;18.930;2024-03-02T01:53:15;27.52;;;14.93;;
58137;SDS011;43955;47.362;18.930;2024-03-02T01:55:42;29.50;;;15.95;;
58137;SDS011;43955;47.362;18.930;2024-03-02T01:58:10;25.83;;;13.75;;
58137;SDS011;43955;47.362;18.930;2024-03-02T02:00:37;26.25;;;15.25;;
58137;SDS011;43955;47.362;18.930;2024-03-02T02:03:05;29.23;;;15.35;;
58137;SDS011;43955;47.362;18.930;2024-03-02T02:05:34;27.10;;;13.90;;
58137;SDS011;43955;47.362;18.930;2024-03-02T02:08:02;27.20;;;15.05;;
58137;SDS011;43955;47.362;18.930;2024-03-02T02:10:29;31.77;;;15.07;;
58137;SDS011;43955;47.362;18.930;2024-03-02T02:12:57;25.88;;;13.85;;
58137;SDS011;43955;47.362;18.930;2024-03-02T02:15:25;23.77;;;13.40;;
58137;SDS011;43955;47.362;18.930;2024-03-02T02:17:56;29.95;;;14.32;;
58137;SDS011;43955;47.362;18.930;2024-03-02T02:20:25;34.90;;;15.73;;
58137;SDS011;43955;47.362;18.930;2024-03-02T02:22:56;34.50;;;18.02;;
58137;SDS011;43955;47.362;18.930;2024-03-02T02:25:23;42.95;;;21.42;;
58137;SDS011;43955;47.362;18.930;2024-03-02T02:27:50;37.88;;;16.60;;
58137;SDS011;43955;47.362;18.930;2024-03-02T02:30:23;48.40;;;24.77;;
58137;SDS011;43955;47.362;18.930;2024-03-02T02:32:53;50.15;;;26.80;;
58137;SDS011;43955;47.362;18.930;2024-03-02T02:35:21;30.73;;;16.42;;
58137;SDS011;43955;47.362;18.930;2024-03-02T02:37:49;37.42;;;19.52;;
58137;SDS011;43955;47.362;18.930;2024-03-02T02:40:16;27.60;;;15.05;;
58137;SDS011;43955;47.362;18.930;2024-03-02T02:42:46;31.92;;;15.85;;
58137;SDS011;43955;47.362;18.930;2024-03-02T02:45:16;31.55;;;16.67;;
58137;SDS011;43955;47.362;18.930;2024-03-02T02:47:44;26.50;;;13.93;;
58137;SDS011;43955;47.362;18.930;2024-03-02T02:50:11;24.00;;;12.85;;
58137;SDS011;43955;47.362;18.930;2024-03-02T02:52:41;31.35;;;14.93;;
58137;SDS011;43955;47.362;18.930;2024-03-02T02:55:09;27.37;;;14.85;;
58137;SDS011;43955;47.362;18.930;2024-03-02T02:57:38;27.58;;;13.75;;
58137;SDS011;43955;47.362;18.930;2024-03-02T03:00:14;27.20;;;14.35;;
58137;SDS011;43955;47.362;18.930;2024-03-02T03:02:44;25.20;;;14.80;;
58137;SDS011;43955;47.362;18.930;2024-03-02T03:05:13;26.45;;;13.55;;
58137;SDS011;43955;47.362;18.930;2024-03-02T03:07:42;23.80;;;13.38;;
58137;SDS011;43955;47.362;18.930;2024-03-02T03:10:10;27.67;;;14.48;;
58137;SDS011;43955;47.362;18.930;2024-03-02T03:12:38;28.25;;;15.23;;
58137;SDS011;43955;47.362;18.930;2024-03-02T03:15:08;25.90;;;14.90;;
58137;SDS011;43955;47.362;18.930;2024-03-02T03:17:37;26.23;;;13.32;;
58137;SDS011;43955;47.362;18.930;2024-03-02T03:20:05;28.73;;;14.23;;
58137;SDS011;43955;47.362;18.930;2024-03-02T03:22:37;30.37;;;15.65;;
58137;SDS011;43955;47.362;18.930;2024-03-02T03:25:04;28.80;;;14.38;;
58137;SDS011;43955;47.362;18.930;2024-03-02T03:27:32;27.48;;;15.05;;
58137;SDS011;43955;47.362;18.930;2024-03-02T03:30:02;30.98;;;14.85;;
58137;SDS011;43955;47.362;18.930;2024-03-02T03:32:34;29.05;;;15.93;;
58137;SDS011;43955;47.362;18.930;2024-03-02T03:35:01;28.62;;;15.93;;
58137;SDS011;43955;47.362;18.930;2024-03-02T03:37:29;28.70;;;14.35;;
58137;SDS011;43955;47.362;18.930;2024-03-02T03:40:02;27.45;;;15.10;;
58137;SDS011;43955;47.362;18.930;2024-03-02T03:42:30;26.50;;;14.77;;
58137;SDS011;43955;47.362;18.930;2024-03-02T03:44:57;28.62;;;14.57;;
58137;SDS011;43955;47.362;18.930;2024-03-02T03:47:25;33.00;;;15.95;;
58137;SDS011;43955;47.362;18.930;2024-03-02T03:49:53;29.48;;;14.77;;
58137;SDS011;43955;47.362;18.930;2024-03-02T03:52:20;25.45;;;14.05;;
58137;SDS011;43955;47.362;18.930;2024-03-02T03:54:51;26.58;;;14.50;;
58137;SDS011;43955;47.362;18.930;2024-03-02T03:57:18;25.67;;;14.20;;
58137;SDS011;43955;47.362;18.930;2024-03-02T03:59:46;27.83;;;14.30;;
58137;SDS011;43955;47.362;18.930;2024-03-02T04:02:14;29.98;;;14.00;;
58137;SDS011;43955;47.362;18.930;2024-03-02T04:04:41;29.83;;;14.80;;
58137;SDS011;43955;47.362;18.930;2024-03-02T04:07:12;26.23;;;14.23;;
58137;SDS011;43955;47.362;18.930;2024-03-02T04:09:39;27.08;;;15.43;;
58137;SDS011;43955;47.362;18.930;2024-03-02T04:12:06;27.73;;;14.25;;
58137;SDS011;43955;47.362;18.930;2024-03-02T04:14:34;31.50;;;15.98;;
58137;SDS011;43955;47.362;18.930;2024-03-02T04:17:01;33.17;;;16.17;;
58137;SDS011;43955;47.362;18.930;2024-03-02T04:19:30;25.85;;;14.35;;
58137;SDS011;43955;47.362;18.930;2024-03-02T04:21:57;29.12;;;15.10;;
58137;SDS011;43955;47.362;18.930;2024-03-02T04:24:28;26.95;;;14.85;;
58137;SDS011;43955;47.362;18.930;2024-03-02T04:26:56;26.55;;;14.77;;
58137;SDS011;43955;47.362;18.930;2024-03-02T04:29:24;24.27;;;14.60;;
58137;SDS011;43955;47.362;18.930;2024-03-02T04:31:52;27.45;;;15.07;;
58137;SDS011;43955;47.362;18.930;2024-03-02T04:34:19;30.42;;;14.38;;
58137;SDS011;43955;47.362;18.930;2024-03-02T04:36:47;25.27;;;14.20;;
58137;SDS011;43955;47.362;18.930;2024-03-02T04:39:16;31.80;;;15.00;;
58137;SDS011;43955;47.362;18.930;2024-03-02T04:41:43;28.77;;;14.57;;
58137;SDS011;43955;47.362;18.930;2024-03-02T04:44:10;28.50;;;14.05;;
58137;SDS011;43955;47.362;18.930;2024-03-02T04:46:38;27.27;;;15.13;;
58137;SDS011;43955;47.362;18.930;2024-03-02T04:49:07;25.77;;;14.20;;
58137;SDS011;43955;47.362;18.930;2024-03-02T04:51:34;32.63;;;14.90;;
58137;SDS011;43955;47.362;18.930;2024-03-02T04:54:01;26.62;;;13.95;;
58137;SDS011;43955;47.362;18.930;2024-03-02T04:56:29;27.13;;;14.55;;
58137;SDS011;43955;47.362;18.930;2024-03-02T04:59:11;27.77;;;14.43;;
58137;SDS011;43955;47.362;18.930;2024-03-02T05:01:38;31.37;;;15.90;;
58137;SDS011;43955;47.362;18.930;2024-03-02T05:04:05;32.00;;;15.13;;
58137;SDS011;43955;47.362;18.930;2024-03-02T05:06:32;32.92;;;16.15;;
58137;SDS011;43955;47.362;18.930;2024-03-02T05:08:59;29.95;;;15.55;;
58137;SDS011;43955;47.362;18.930;2024-03-02T05:11:26;42.65;;;16.02;;
58137;SDS011;43955;47.362;18.930;2024-03-02T05:14:23;32.80;;;14.98;;
58137;SDS011;43955;47.362;18.930;2024-03-02T05:16:50;31.42;;;15.82;;
58137;SDS011;43955;47.362;18.930;2024-03-02T05:19:17;29.92;;;14.32;;
58137;SDS011;43955;47.362;18.930;2024-03-02T05:21:44;29.98;;;13.95;;
58137;SDS011;43955;47.362;18.930;2024-03-02T05:24:11;27.58;;;14.90;;
58137;SDS011;43955;47.362;18.930;2024-03-02T05:26:38;31.55;;;15.15;;
58137;SDS011;43955;47.362;18.930;2024-03-02T05:29:06;26.23;;;14.65;;
58137;SDS011;43955;47.362;18.930;2024-03-02T05:31:33;27.92;;;14.15;;
58137;SDS011;43955;47.362;18.930;2024-03-02T05:34:01;26.65;;;13.55;;
58137;SDS011;43955;47.362;18.930;2024-03-02T05:36:29;31.40;;;14.85;;
58137;SDS011;43955;47.362;18.930;2024-03-02T05:38:56;25.33;;;13.40;;
58137;SDS011;43955;47.362;18.930;2024-03-02T05:41:23;28.45;;;14.18;;
58137;SDS011;43955;47.362;18.930;2024-03-02T05:43:51;31.62;;;16.08;;
58137;SDS011;43955;47.362;18.930;2024-03-02T05:46:18;29.48;;;14.70;;
58137;SDS011;43955;47.362;18.930;2024-03-02T05:48:45;30.73;;;15.27;;
58137;SDS011;43955;47.362;18.930;2024-03-02T05:51:13;32.28;;;14.57;;
58137;SDS011;43955;47.362;18.930;2024-03-02T05:53:41;29.92;;;14.52;;
58137;SDS011;43955;47.362;18.930;2024-03-02T05:56:08;31.67;;;15.27;;
58137;SDS011;43955;47.362;18.930;2024-03-02T05:58:36;28.48;;;15.05;;
58137;SDS011;43955;47.362;18.930;2024-03-02T06:01:22;26.52;;;14.63;;
58137;SDS011;43955;47.362;18.930;2024-03-02T06:03:55;26.70;;;14.63;;
58137;SDS011;43955;47.362;18.930;2024-03-02T06:06:23;34.33;;;16.10;;
58137;SDS011;43955;47.362;18.930;2024-03-02T06:08:50;36.60;;;16.58;;
58137;SDS011;43955;47.362;18.930;2024-03-02T06:11:21;28.87;;;14.38;;
58137;SDS011;43955;47.362;18.930;2024-03-02T06:13:48;31.33;;;14.57;;
58137;SDS011;43955;47.362;18.930;2024-03-02T06:16:15;31.37;;;16.70;;
58137;SDS011;43955;47.362;18.930;2024-03-02T06:18:42;31.20;;;15.35;;
58137;SDS011;43955;47.362;18.930;2024-03-02T06:21:13;26.62;;;14.90;;
58137;SDS011;43955;47.362;18.930;2024-03-02T06:23:40;27.98;;;15.32;;
58137;SDS011;43955;47.362;18.930;2024-03-02T06:26:07;35.95;;;16.60;;
58137;SDS011;43955;47.362;18.930;2024-03-02T06:28:34;30.92;;;14.73;;
58137;SDS011;43955;47.362;18.930;2024-03-02T06:31:01;33.42;;;17.02;;
58137;SDS011;43955;47.362;18.930;2024-03-02T06:33:29;32.78;;;16.08;;
58137;SDS011;43955;47.362;18.930;2024-03-02T06:35:56;31.52;;;16.02;;
58137;SDS011;43955;47.362;18.930;2024-03-02T06:38:24;30.62;;;15.77;;
58137;SDS011;43955;47.362;18.930;2024-03-02T06:40:51;31.05;;;15.20;;
58137;SDS011;43955;47.362;18.930;2024-03-02T06:43:18;33.40;;;16.23;;
58137;SDS011;43955;47.362;18.930;2024-03-02T06:45:50;30.67;;;15.02;;
58137;SDS011;43955;47.362;18.930;2024-03-02T06:48:18;30.40;;;15.77;;
58137;SDS011;43955;47.362;18.930;2024-03-02T06:50:47;34.58;;;14.52;;
58137;SDS011;43955;47.362;18.930;2024-03-02T06:53:17;33.22;;;15.60;;
58137;SDS011;43955;47.362;18.930;2024-03-02T06:55:44;28.42;;;15.48;;
58137;SDS011;43955;47.362;18.930;2024-03-02T06:58:14;29.02;;;15.20;;
58137;SDS011;43955;47.362;18.930;2024-03-02T07:00:42;30.85;;;15.43;;
58137;SDS011;43955;47.362;18.930;2024-03-02T07:03:10;31.17;;;16.12;;
58137;SDS011;43955;47.362;18.930;2024-03-02T07:05:37;32.83;;;16.05;;
58137;SDS011;43955;47.362;18.930;2024-03-02T07:08:05;30.85;;;15.35;;
58137;SDS011;43955;47.362;18.930;2024-03-02T07:10:33;29.63;;;14.30;;
58137;SDS011;43955;47.362;18.930;2024-03-02T07:13:00;30.37;;;14.95;;
58137;SDS011;43955;47.362;18.930;2024-03-02T07:15:28;32.58;;;16.27;;
58137;SDS011;43955;47.362;18.930;2024-03-02T07:18:10;27.98;;;14.57;;
58137;SDS011;43955;47.362;18.930;2024-03-02T07:20:37;29.95;;;15.55;;
58137;SDS011;43955;47.362;18.930;2024-03-02T07:23:14;30.88;;;15.50;;
58137;SDS011;43955;47.362;18.930;2024-03-02T07:25:42;30.52;;;15.20;;
58137;SDS011;43955;47.362;18.930;2024-03-02T07:28:12;34.55;;;16.42;;
58137;SDS011;43955;47.362;18.930;2024-03-02T07:30:39;31.70;;;15.20;;
58137;SDS011;43955;47.362;18.930;2024-03-02T07:33:08;28.35;;;15.45;;
58137;SDS011;43955;47.362;18.930;2024-03-02T07:35:36;33.55;;;15.95;;
58137;SDS011;43955;47.362;18.930;2024-03-02T07:38:03;31.85;;;15.88;;
58137;SDS011;43955;47.362;18.930;2024-03-02T07:40:30;29.60;;;14.50;;
58137;SDS011;43955;47.362;18.930;2024-03-02T07:42:57;29.67;;;15.85;;
58137;SDS011;43955;47.362;18.930;2024-03-02T07:45:28;29.80;;;15.20;;
58137;SDS011;43955;47.362;18.930;2024-03-02T07:47:56;29.40;;;15.75;;
58137;SDS011;43955;47.362;18.930;2024-03-02T07:50:23;27.17;;;14.68;;
58137;SDS011;43955;47.362;18.930;2024-03-02T07:52:58;33.13;;;16.55;;
58137;SDS011;43955;47.362;18.930;2024-03-02T07:55:51;27.77;;;15.48;;
58137;SDS011;43955;47.362;18.930;2024-03-02T07:58:18;28.77;;;14.63;;
58137;SDS011;43955;47.362;18.930;2024-03-02T08:00:46;28.20;;;14.80;;
58137;SDS011;43955;47.362;18.930;2024-03-02T08:03:15;26.67;;;16.02;;
58137;SDS011;43955;47.362;18.930;2024-03-02T08:05:42;31.25;;;16.75;;
58137;SDS011;43955;47.362;18.930;2024-03-02T08:08:11;26.70;;;14.93;;
58137;SDS011;43955;47.362;18.930;2024-03-02T08:10:38;29.92;;;15.43;;
58137;SDS011;43955;47.362;18.930;2024-03-02T08:13:05;28.80;;;14.75;;
58137;SDS011;43955;47.362;18.930;2024-03-02T08:15:32;27.52;;;14.95;;
58137;SDS011;43955;47.362;18.930;2024-03-02T08:18:00;32.00;;;15.45;;
58137;SDS011;43955;47.362;18.930;2024-03-02T08:20:27;28.87;;;13.77;;
58137;SDS011;43955;47.362;18.930;2024-03-02T08:22:56;22.87;;;13.98;;
58137;SDS011;43955;47.362;18.930;2024-03-02T08:25:23;28.90;;;15.88;;
58137;SDS011;43955;47.362;18.930;2024-03-02T08:27:51;30.75;;;14.95;;
58137;SDS011;43955;47.362;18.930;2024-03-02T08:30:18;29.20;;;14.60;;
58137;SDS011;43955;47.362;18.930;2024-03-02T08:32:47;31.77;;;15.57;;
58137;SDS011;43955;47.362;18.930;2024-03-02T08:35:14;22.92;;;13.27;;
58137;SDS011;43955;47.362;18.930;2024-03-02T08:37:42;25.50;;;14.55;;
58137;SDS011;43955;47.362;18.930;2024-03-02T08:40:15;30.98;;;15.27;;
58137;SDS011;43955;47.362;18.930;2024-03-02T08:42:46;29.00;;;15.88;;
58137;SDS011;43955;47.362;18.930;2024-03-02T08:45:14;30.67;;;16.73;;
58137;SDS011;43955;47.362;18.930;2024-03-02T08:47:41;26.23;;;14.10;;
58137;SDS011;43955;47.362;18.930;2024-03-02T08:50:09;27.30;;;15.07;;
58137;SDS011;43955;47.362;18.930;2024-03-02T08:52:39;26.67;;;15.02;;
58137;SDS011;43955;47.362;18.930;2024-03-02T08:55:07;28.67;;;14.82;;
58137;SDS011;43955;47.362;18.930;2024-03-02T08:57:37;27.87;;;14.55;;
58137;SDS011;43955;47.362;18.930;2024-03-02T09:00:05;27.23;;;14.15;;
58137;SDS011;43955;47.362;18.930;2024-03-02T09:02:34;24.48;;;15.07;;
58137;SDS011;43955;47.362;18.930;2024-03-02T09:05:02;24.87;;;15.23;;
58137;SDS011;43955;47.362;18.930;2024-03-02T09:07:32;28.10;;;15.02;;
58137;SDS011;43955;47.362;18.930;2024-03-02T09:09:59;24.60;;;14.30;;
58137;SDS011;43955;47.362;18.930;2024-03-02T09:12:26;25.77;;;14.70;;
58137;SDS011;43955;47.362;18.930;2024-03-02T09:14:54;29.52;;;13.75;;
58137;SDS011;43955;47.362;18.930;2024-03-02T09:17:24;24.00;;;13.95;;
58137;SDS011;43955;47.362;18.930;2024-03-02T09:19:51;24.63;;;13.60;;
58137;SDS011;43955;47.362;18.930;2024-03-02T09:22:19;23.35;;;13.10;;
58137;SDS011;43955;47.362;18.930;2024-03-02T09:24:47;27.60;;;13.60;;
58137;SDS011;43955;47.362;18.930;2024-03-02T09:27:14;23.90;;;13.20;;
58137;SDS011;43955;47.362;18.930;2024-03-02T09:29:42;24.87;;;12.25;;
58137;SDS011;43955;47.362;18.930;2024-03-02T09:32:12;23.70;;;12.82;;
58137;SDS011;43955;47.362;18.930;2024-03-02T09:34:42;25.35;;;13.57;;
58137;SDS011;43955;47.362;18.930;2024-03-02T09:37:10;22.08;;;12.30;;
58137;SDS011;43955;47.362;18.930;2024-03-02T09:39:37;18.95;;;11.10;;
58137;SDS011;43955;47.362;18.930;2024-03-02T09:42:05;21.83;;;12.93;;
58137;SDS011;43955;47.362;18.930;2024-03-02T09:44:33;25.02;;;12.65;;
58137;SDS011;43955;47.362;18.930;2024-03-02T09:47:06;22.75;;;12.15;;
58137;SDS011;43955;47.362;18.930;2024-03-02T09:49:34;21.25;;;12.25;;
58137;SDS011;43955;47.362;18.930;2024-03-02T09:52:04;20.20;;;11.57;;
58137;SDS011;43955;47.362;18.930;2024-03-02T09:54:32;22.40;;;12.85;;
58137;SDS011;43955;47.362;18.930;2024-03-02T09:56:59;22.17;;;12.63;;
58137;SDS011;43955;47.362;18.930;2024-03-02T09:59:29;19.85;;;14.68;;
58137;SDS011;43955;47.362;18.930;2024-03-02T10:01:59;24.80;;;13.20;;
58137;SDS011;43955;47.362;18.930;2024-03-02T10:04:31;21.52;;;13.15;;
58137;SDS011;43955;47.362;18.930;2024-03-02T10:09:44;25.00;;;13.60;;
58137;SDS011;43955;47.362;18.930;2024-03-02T10:12:13;21.02;;;11.90;;
58137;SDS011;43955;47.362;18.930;2024-03-02T10:14:42;20.90;;;11.52;;
58137;SDS011;43955;47.362;18.930;2024-03-02T10:17:11;18.70;;;10.95;;
58137;SDS011;43955;47.362;18.930;2024-03-02T10:19:42;15.60;;;9.07;;
58137;SDS011;43955;47.362;18.930;2024-03-02T10:22:10;20.42;;;10.13;;
58137;SDS011;43955;47.362;18.930;2024-03-02T10:24:41;16.62;;;9.98;;
58137;SDS011;43955;47.362;18.930;2024-03-02T10:27:15;19.73;;;10.80;;
58137;SDS011;43955;47.362;18.930;2024-03-02T10:29:47;18.77;;;10.98;;
58137;SDS011;43955;47.362;18.930;2024-03-02T10:32:16;18.30;;;11.30;;
58137;SDS011;43955;47.362;18.930;2024-03-02T10:34:44;19.05;;;11.12;;
58137;SDS011;43955;47.362;18.930;2024-03-02T10:37:12;18.12;;;10.63;;
58137;SDS011;43955;47.362;18.930;2024-03-02T10:39:41;19.40;;;11.38;;
58137;SDS011;43955;47.362;18.930;2024-03-02T10:42:12;14.60;;;9.90;;
58137;SDS011;43955;47.362;18.930;2024-03-02T10:44:43;17.35;;;10.52;;
58137;SDS011;43955;47.362;18.930;2024-03-02T10:47:11;19.50;;;13.02;;
58137;SDS011;43955;47.362;18.930;2024-03-02T10:49:39;19.90;;;11.77;;
58137;SDS011;43955;47.362;18.930;2024-03-02T10:52:09;16.35;;;9.02;;
58137;SDS011;43955;47.362;18.930;2024-03-02T10:54:36;16.58;;;10.52;;
58137;SDS011;43955;47.362;18.930;2024-03-02T10:57:07;20.92;;;11.93;;
58137;SDS011;43955;47.362;18.930;2024-03-02T10:59:37;21.87;;;12.98;;
58137;SDS011;43955;47.362;18.930;2024-03-02T11:02:06;18.85;;;12.20;;
58137;SDS011;43955;47.362;18.930;2024-03-02T11:04:35;24.75;;;13.10;;
58137;SDS011;43955;47.362;18.930;2024-03-02T11:07:07;16.60;;;9.65;;
58137;SDS011;43955;47.362;18.930;2024-03-02T11:09:38;16.40;;;10.98;;
58137;SDS011;43955;47.362;18.930;2024-03-02T11:12:22;17.83;;;9.65;;
58137;SDS011;43955;47.362;18.930;2024-03-02T11:14:53;16.65;;;9.70;;
58137;SDS011;43955;47.362;18.930;2024-03-02T11:17:23;14.87;;;8.23;;
58137;SDS011;43955;47.362;18.930;2024-03-02T11:19:51;13.88;;;8.48;;
58137;SDS011;43955;47.362;18.930;2024-03-02T11:22:19;14.13;;;8.50;;
58137;SDS011;43955;47.362;18.930;2024-03-02T11:24:50;13.38;;;8.13;;
58137;SDS011;43955;47.362;18.930;2024-03-02T11:33:02;12.57;;;7.62;;
58137;SDS011;43955;47.362;18.930;2024-03-02T11:35:42;12.00;;;8.23;;
58137;SDS011;43955;47.362;18.930;2024-03-02T11:38:14;13.18;;;8.10;;
58137;SDS011;43955;47.362;18.930;2024-03-02T11:40:44;11.70;;;7.55;;
58137;SDS011;43955;47.362;18.930;2024-03-02T11:43:11;11.65;;;7.85;;
58137;SDS011;43955;47.362;18.930;2024-03-02T11:45:38;10.25;;;7.07;;
58137;SDS011;43955;47.362;18.930;2024-03-02T11:50:46;12.45;;;6.72;;
58137;SDS011;43955;47.362;18.930;2024-03-02T11:53:19;10.65;;;7.03;;
58137;SDS011;43955;47.362;18.930;2024-03-02T11:55:47;11.18;;;7.45;;
58137;SDS011;43955;47.362;18.930;2024-03-02T11:58:16;9.40;;;7.03;;
58137;SDS011;43955;47.362;18.930;2024-03-02T12:00:45;12.70;;;6.93;;
58137;SDS011;43955;47.362;18.930;2024-03-02T12:03:14;8.57;;;6.07;;
58137;SDS011;43955;47.362;18.930;2024-03-02T12:05:42;10.85;;;6.75;;
58137;SDS011;43955;47.362;18.930;2024-03-02T12:08:10;7.72;;;5.85;;
58137;SDS011;43955;47.362;18.930;2024-03-02T12:10:39;10.63;;;6.00;;
58137;SDS011;43955;47.362;18.930;2024-03-02T12:13:07;7.62;;;5.28;;
58137;SDS011;43955;47.362;18.930;2024-03-02T12:15:35;9.52;;;6.43;;
58137;SDS011;43955;47.362;18.930;2024-03-02T12:18:06;8.60;;;5.95;;
58137;SDS011;43955;47.362;18.930;2024-03-02T12:20:34;8.23;;;5.37;;
58137;SDS011;43955;47.362;18.930;2024-03-02T12:23:06;7.72;;;5.15;;
58137;SDS011;43955;47.362;18.930;2024-03-02T12:25:35;9.10;;;5.87;;
58137;SDS011;43955;47.362;18.930;2024-03-02T12:28:04;9.02;;;6.07;;
58137;SDS011;43955;47.362;18.930;2024-03-02T12:30:32;11.98;;;6.10;;
58137;SDS011;43955;47.362;18.930;2024-03-02T12:33:04;10.35;;;6.40;;
58137;SDS011;43955;47.362;18.930;2024-03-02T12:35:33;12.48;;;7.15;;
58137;SDS011;43955;47.362;18.930;2024-03-02T12:38:00;10.95;;;7.20;;
58137;SDS011;43955;47.362;18.930;2024-03-02T12:40:34;10.70;;;7.32;;
58137;SDS011;43955;47.362;18.930;2024-03-02T12:43:01;10.57;;;7.50;;
58137;SDS011;43955;47.362;18.930;2024-03-02T12:45:29;10.23;;;6.62;;
58137;SDS011;43955;47.362;18.930;2024-03-02T12:47:56;12.77;;;7.55;;
58137;SDS011;43955;47.362;18.930;2024-03-02T12:50:23;11.27;;;6.65;;
58137;SDS011;43955;47.362;18.930;2024-03-02T12:52:54;10.88;;;7.62;;
58137;SDS011;43955;47.362;18.930;2024-03-02T12:55:22;13.50;;;8.35;;
58137;SDS011;43955;47.362;18.930;2024-03-02T12:57:51;11.93;;;7.80;;
58137;SDS011;43955;47.362;18.930;2024-03-02T13:00:20;12.95;;;7.75;;
58137;SDS011;43955;47.362;18.930;2024-03-02T13:02:48;13.70;;;8.38;;
58137;SDS011;43955;47.362;18.930;2024-03-02T13:05:19;14.90;;;8.73;;
58137;SDS011;43955;47.362;18.930;2024-03-02T13:07:47;14.55;;;8.15;;
58137;SDS011;43955;47.362;18.930;2024-03-02T13:10:15;22.17;;;12.20;;
58137;SDS011;43955;47.362;18.930;2024-03-02T13:12:45;20.70;;;13.10;;
58137;SDS011;43955;47.362;18.930;2024-03-02T13:15:13;20.92;;;11.45;;
58137;SDS011;43955;47.362;18.930;2024-03-02T13:17:46;18.77;;;9.60;;
58137;SDS011;43955;47.362;18.930;2024-03-02T13:20:13;16.67;;;9.70;;
58137;SDS011;43955;47.362;18.930;2024-03-02T13:22:41;15.73;;;8.82;;
58137;SDS011;43955;47.362;18.930;2024-03-02T13:25:09;17.05;;;9.45;;
58137;SDS011;43955;47.362;18.930;2024-03-02T13:27:38;15.27;;;8.85;;
58137;SDS011;43955;47.362;18.930;2024-03-02T13:30:05;14.63;;;7.85;;
58137;SDS011;43955;47.362;18.930;2024-03-02T13:32:41;17.35;;;9.45;;
58137;SDS011;43955;47.362;18.930;2024-03-02T13:35:09;14.82;;;8.25;;
58137;SDS011;43955;47.362;18.930;2024-03-02T13:37:38;17.08;;;9.63;;
58137;SDS011;43955;47.362;18.930;2024-03-02T13:40:06;15.23;;;9.02;;
58137;SDS011;43955;47.362;18.930;2024-03-02T13:42:39;16.55;;;9.48;;
58137;SDS011;43955;47.362;18.930;2024-03-02T13:45:07;21.37;;;10.27;;
58137;SDS011;43955;47.362;18.930;2024-03-02T13:47:34;19.83;;;11.15;;
58137;SDS011;43955;47.362;18.930;2024-03-02T13:50:03;16.25;;;10.50;;
58137;SDS011;43955;47.362;18.930;2024-03-02T13:52:31;15.52;;;8.95;;
58137;SDS011;43955;47.362;18.930;2024-03-02T13:54:59;20.15;;;10.25;;
58137;SDS011;43955;47.362;18.930;2024-03-02T13:57:28;18.27;;;9.93;;
58137;SDS011;43955;47.362;18.930;2024-03-02T13:59:58;18.90;;;10.63;;
58137;SDS011;43955;47.362;18.930;2024-03-02T14:02:40;16.87;;;9.77;;
58137;SDS011;43955;47.362;18.930;2024-03-02T14:05:07;19.58;;;9.43;;
58137;SDS011;43955;47.362;18.930;2024-03-02T14:07:38;20.02;;;10.40;;
58137;SDS011;43955;47.362;18.930;2024-03-02T14:10:09;20.48;;;9.23;;
58137;SDS011;43955;47.362;18.930;2024-03-02T14:12:37;18.98;;;9.73;;
58137;SDS011;43955;47.362;18.930;2024-03-02T14:15:04;20.20;;;9.52;;
58137;SDS011;43955;47.362;18.930;2024-03-02T14:17:31;21.27;;;10.90;;
58137;SDS011;43955;47.362;18.930;2024-03-02T14:19:59;21.62;;;11.25;;
58137;SDS011;43955;47.362;18.930;2024-03-02T14:22:27;24.17;;;11.80;;
58137;SDS011;43955;47.362;18.930;2024-03-02T14:24:54;24.35;;;11.45;;
58137;SDS011;43955;47.362;18.930;2024-03-02T14:27:22;26.08;;;12.05;;
58137;SDS011;43955;47.362;18.930;2024-03-02T14:30:10;17.58;;;10.02;;
58137;SDS011;43955;47.362;18.930;2024-03-02T14:32:39;22.30;;;9.85;;
58137;SDS011;43955;47.362;18.930;2024-03-02T14:35:06;21.17;;;11.48;;
58137;SDS011;43955;47.362;18.930;2024-03-02T14:37:37;26.10;;;12.07;;
58137;SDS011;43955;47.362;18.930;2024-03-02T14:40:05;20.83;;;11.38;;